Time;durP1;ratioP1;P1;durP2;ratioP2;P2;SDS_P1;SDS_P2;PMS_P1;PMS_P2;Temp;Humidity;BMP_temperature;BMP_pressure;BME280_temperature;BME280_humidity;BME280_pressure;Samples;Min_cycle;Max_cycle;Signal;HPM_P1;HPM_P2
2022/06/13 00:01:20;;;;;;;6.33;3.27;;;;;;;10.35;74.86;99658.80;1719856;82;20982;-61
2022/06/13 00:03:48;;;;;;;8.03;3.80;;;;;;;10.37;74.90;99656.97;1712970;82;20908;-61
2022/06/13 00:06:16;;;;;;;6.03;3.27;;;;;;;10.34;74.84;99656.28;1709164;82;21116;-61
2022/06/13 00:08:42;;;;;;;5.80;3.17;;;;;;;10.26;74.81;99652.69;1716584;82;20979;-61
2022/06/13 00:11:13;;;;;;;5.93;3.33;;;;;;;10.17;74.84;99651.82;1720114;82;21571;-61
2022/06/13 00:13:43;;;;;;;5.10;2.92;;;;;;;10.11;75.07;99652.08;1722619;82;20853;-61
2022/06/13 00:16:12;;;;;;;6.03;3.90;;;;;;;10.01;75.05;99644.69;1717662;82;20916;-61
2022/06/13 00:18:39;;;;;;;6.12;3.80;;;;;;;9.94;75.19;99640.69;1712885;82;20986;-61
2022/06/13 00:21:05;;;;;;;6.20;3.02;;;;;;;9.91;75.36;99635.59;1718941;82;20884;-61
2022/06/13 00:23:36;;;;;;;7.58;3.22;;;;;;;9.87;75.44;99632.75;1720764;82;20845;-61
2022/06/13 00:26:02;;;;;;;8.55;4.53;;;;;;;9.85;75.53;99628.05;1712754;82;21017;-61
2022/06/13 00:28:29;;;;;;;6.57;3.50;;;;;;;9.85;75.66;99626.75;1722430;82;20892;-61
2022/06/13 00:30:56;;;;;;;6.97;3.70;;;;;;;9.85;75.74;99628.05;1726087;82;21818;-61
2022/06/13 00:33:22;;;;;;;6.60;3.97;;;;;;;9.83;75.88;99624.66;1720245;82;20900;-61
2022/06/13 00:35:49;;;;;;;5.20;3.37;;;;;;;9.83;76.02;99633.78;1714629;82;21422;-61
2022/06/13 00:38:16;;;;;;;6.22;3.30;;;;;;;9.84;76.12;99630.28;1713595;82;21013;-61
2022/06/13 00:40:43;;;;;;;8.25;3.52;;;;;;;9.85;76.24;99625.44;1721434;82;21428;-61
2022/06/13 00:43:13;;;;;;;8.73;4.60;;;;;;;9.87;76.37;99626.23;1721800;82;21110;-61
2022/06/13 00:45:40;;;;;;;7.22;3.92;;;;;;;9.90;76.48;99633.91;1720574;82;20878;-61
2022/06/13 00:48:06;;;;;;;5.85;3.72;;;;;;;9.92;76.55;99622.95;1740876;81;21559;-61
2022/06/13 00:50:41;;;;;;;4.70;3.47;;;;;;;9.96;76.68;99620.58;1733485;81;20894;-61
2022/06/13 00:53:13;;;;;;;5.85;4.10;;;;;;;10.00;76.82;99614.31;1699948;83;21418;-61
2022/06/13 00:55:51;;;;;;;7.47;4.62;;;;;;;10.05;76.82;99614.95;1712085;83;21045;-61
2022/06/13 00:58:19;;;;;;;7.22;3.98;;;;;;;10.05;76.79;99612.34;1731595;82;21484;-61
2022/06/13 01:00:51;;;;;;;10.45;4.97;;;;;;;10.08;76.92;99623.94;1700690;83;20932;-61
2022/06/13 01:03:18;;;;;;;4.92;3.27;;;;;;;10.06;76.93;99614.03;1703588;83;20899;-61
2022/06/13 01:05:49;;;;;;;7.72;3.55;;;;;;;10.05;76.93;99612.34;1713122;82;20957;-61
2022/06/13 01:08:18;;;;;;;6.92;3.60;;;;;;;10.02;77.02;99615.06;1708446;83;21812;-61
2022/06/13 01:14:24;;;;;;;6.65;3.30;;;;;;;9.95;76.93;99608.46;1702928;83;20955;-61
2022/06/13 01:17:13;;;;;;;8.63;4.08;;;;;;;9.82;76.88;99612.55;1722876;82;21527;-61
2022/06/13 01:20:21;;;;;;;6.22;3.58;;;;;;;9.72;77.14;99616.48;1694185;83;20933;-61
2022/06/13 01:23:20;;;;;;;11.18;4.72;;;;;;;9.72;77.31;99608.66;1693980;83;22194;-61
2022/06/13 01:26:25;;;;;;;7.10;3.15;;;;;;;9.77;77.33;99609.30;1692964;83;21499;-61
2022/06/13 01:29:15;;;;;;;8.23;4.50;;;;;;;9.79;77.36;99607.47;1693276;83;20946;-61
2022/06/13 01:32:02;;;;;;;9.45;4.03;;;;;;;9.80;77.45;99601.33;1683834;83;20914;-61
2022/06/13 01:34:42;;;;;;;8.10;4.53;;;;;;;9.82;77.60;99594.30;1696656;83;21590;-61
2022/06/13 01:37:29;;;;;;;9.38;3.77;;;;;;;9.81;77.63;99595.22;1677257;83;21032;-61
2022/06/13 01:40:04;;;;;;;5.70;3.08;;;;;;;9.77;77.61;99583.22;1690545;83;20929;-61
2022/06/13 01:42:58;;;;;;;7.15;3.80;;;;;;;9.70;77.57;99587.05;1670033;84;21530;-60
2022/06/13 01:45:57;;;;;;;7.35;3.33;;;;;;;9.58;77.33;99581.48;1669772;84;21041;-61
2022/06/13 01:48:59;;;;;;;7.22;4.50;;;;;;;9.45;77.39;99588.15;1669232;84;20913;-61
2022/06/13 01:51:40;;;;;;;11.50;4.17;;;;;;;9.38;77.77;99590.19;1666956;84;21035;-61
2022/06/13 01:54:24;;;;;;;6.85;4.50;;;;;;;9.44;78.19;99594.29;1682242;83;20923;-61
2022/06/13 01:57:13;;;;;;;6.78;3.33;;;;;;;9.51;78.27;99591.78;1691173;83;21502;-61
2022/06/13 02:00:06;;;;;;;6.25;3.62;;;;;;;9.52;78.29;99584.37;1669761;84;20980;-61
2022/06/13 02:02:47;;;;;;;8.73;3.30;;;;;;;9.53;78.19;99574.78;1677132;84;21002;-61
2022/06/13 02:05:21;;;;;;;7.65;4.47;;;;;;;9.60;78.44;99581.39;1676734;84;21090;-61
2022/06/13 02:07:53;;;;;;;6.08;3.42;;;;;;;9.68;78.60;99574.53;1682024;84;21641;-61
2022/06/13 02:10:25;;;;;;;9.95;4.10;;;;;;;9.76;78.74;99574.56;1677107;84;20974;-61
2022/06/13 02:12:57;;;;;;;6.95;3.58;;;;;;;9.79;78.66;99574.87;1703100;83;20879;-61
2022/06/13 02:15:29;;;;;;;5.72;2.80;;;;;;;9.82;78.54;99568.22;1698602;82;21464;-61
2022/06/13 02:18:00;;;;;;;8.28;4.05;;;;;;;9.79;78.44;99561.84;1698704;83;21038;-61
2022/06/13 02:20:37;;;;;;;4.70;3.10;;;;;;;9.76;78.34;99564.59;1700987;83;20901;-61
2022/06/13 02:23:14;;;;;;;4.83;2.80;;;;;;;9.71;78.34;99562.66;1692025;83;20888;-61
2022/06/13 02:25:49;;;;;;;9.45;3.60;;;;;;;9.68;78.51;99565.41;1678972;84;21552;-61
2022/06/13 02:28:39;;;;;;;8.15;3.05;;;;;;;9.71;78.78;99563.49;1697597;84;20983;-61
2022/06/13 02:31:20;;;;;;;7.42;3.92;;;;;;;9.83;79.08;99573.38;1701729;83;21048;-61
2022/06/13 02:33:54;;;;;;;4.10;3.00;;;;;;;9.98;79.31;99571.80;1699474;83;20959;-61
2022/06/13 02:36:37;;;;;;;7.70;3.65;;;;;;;10.05;79.03;99570.61;1680452;84;20947;-62
2022/06/13 02:39:18;;;;;;;5.42;3.12;;;;;;;10.00;78.79;99573.89;1671069;84;20957;-61
2022/06/13 02:41:56;;;;;;;5.72;2.77;;;;;;;9.93;78.86;99569.86;1675514;82;20967;-61
2022/06/13 02:44:39;;;;;;;4.75;3.02;;;;;;;9.99;79.17;99580.47;1693339;83;22024;-61
2022/06/13 02:47:14;;;;;;;5.37;2.87;;;;;;;10.03;79.27;99577.66;1651513;85;21021;-61
2022/06/13 02:49:58;;;;;;;5.67;2.55;;;;;;;10.08;79.31;99571.77;1619843;87;21077;-61
2022/06/13 02:52:30;;;;;;;4.55;2.62;;;;;;;10.16;79.38;99564.84;1656672;85;20930;-61
2022/06/13 02:55:07;;;;;;;11.60;3.47;;;;;;;10.21;79.16;99559.42;1656090;85;20945;-61
2022/06/13 02:58:02;;;;;;;4.67;2.58;;;;;;;10.23;79.21;99554.98;1658353;85;21992;-61
2022/06/13 03:00:58;;;;;;;5.47;2.87;;;;;;;10.21;78.95;99545.07;1579643;89;21048;-61
2022/06/13 03:03:45;;;;;;;6.12;2.77;;;;;;;10.15;79.12;99545.38;1579005;89;20953;-61
2022/06/13 03:06:19;;;;;;;6.12;3.10;;;;;;;10.16;79.35;99550.97;1582783;89;20960;-61
2022/06/13 03:09:06;;;;;;;5.97;2.98;;;;;;;10.24;79.70;99546.22;1580734;89;20957;-61
2022/06/13 03:11:50;;;;;;;9.40;3.17;;;;;;;10.35;79.74;99547.88;1580078;89;21073;-61
2022/06/13 03:14:39;;;;;;;5.47;2.80;;;;;;;10.38;79.51;99537.29;1583637;89;21563;-61
2022/06/13 03:17:29;;;;;;;8.10;3.27;;;;;;;10.38;79.73;99530.77;1572997;89;21022;-61
2022/06/13 03:20:16;;;;;;;13.62;3.30;;;;;;;10.37;79.98;99547.36;1577707;89;20991;-61
2022/06/13 03:23:12;;;;;;;8.20;3.08;;;;;;;10.44;80.21;99538.28;1582436;89;21058;-61
2022/06/13 03:25:56;;;;;;;11.38;3.60;;;;;;;10.61;80.48;99531.38;1624185;87;21066;-61
2022/06/13 03:28:30;;;;;;;8.53;3.50;;;;;;;10.75;80.43;99529.78;1622071;87;20970;-61
2022/06/13 03:31:05;;;;;;;6.90;3.58;;;;;;;10.97;80.61;99524.27;1621074;87;20898;-61
2022/06/13 03:33:41;;;;;;;5.72;3.42;;;;;;;11.15;80.65;99515.11;1599820;88;21527;-61
2022/06/13 03:36:25;;;;;;;8.45;3.00;;;;;;;11.35;80.72;99521.88;1605054;84;21539;-61
2022/06/13 03:39:12;;;;;;;6.25;3.40;;;;;;;11.53;80.79;99518.73;1688158;84;21163;-61
2022/06/13 03:41:44;;;;;;;10.35;3.67;;;;;;;11.68;80.59;99520.52;1685198;83;20972;-61
2022/06/13 03:44:16;;;;;;;9.55;3.47;;;;;;;11.75;80.46;99515.31;1692324;83;20910;-61
2022/06/13 03:47:03;;;;;;;9.10;3.02;;;;;;;11.79;80.41;99514.23;1694752;83;20956;-62
2022/06/13 03:49:34;;;;;;;9.28;2.92;;;;;;;11.87;80.57;99509.89;1678639;84;20935;-61
2022/06/13 03:52:03;;;;;;;12.93;3.55;;;;;;;12.00;80.62;99506.13;1668321;85;21060;-61
2022/06/13 03:54:41;;;;;;;3.98;2.30;;;;;;;12.12;80.63;99496.27;1648763;85;21034;-62
2022/06/13 03:57:28;;;;;;;6.40;2.90;;;;;;;12.27;80.56;99494.56;1663880;85;20867;-62
2022/06/13 03:59:58;;;;;;;;;;;;;;;12.59;80.71;99497.91;1590176;90;21007;-61
2022/06/13 04:02:31;;;;;;;6.58;2.75;;;;;;;12.80;80.71;99498.86;1576378;88;20206;-62
2022/06/13 04:04:58;;;;;;;5.42;2.22;;;;;;;13.03;80.87;99505.36;1605536;88;21084;-62
2022/06/13 04:07:30;;;;;;;6.65;3.52;;;;;;;13.33;80.90;99503.95;1612564;88;21554;-62
2022/06/13 04:10:05;;;;;;;6.53;2.90;;;;;;;13.33;80.90;99503.95;1601835;88;20945;-62
2022/06/13 04:13:05;;;;;;;5.62;3.15;;;;;;;13.43;80.66;99499.83;1595246;88;21544;-63
2022/06/13 04:15:40;;;;;;;7.33;3.72;;;;;;;13.45;80.54;99496.66;1599210;88;20950;-63
2022/06/13 04:18:18;;;;;;;5.37;2.70;;;;;;;13.55;80.66;99500.36;1595415;88;21841;-63
2022/06/13 04:20:59;;;;;;;4.22;2.35;;;;;;;13.66;80.67;99493.96;1593358;88;21065;-63
2022/06/13 04:23:50;;;;;;;4.95;2.20;;;;;;;13.73;80.48;99493.59;1575348;90;21580;-63
2022/06/13 04:26:37;;;;;;;5.50;2.72;;;;;;;13.78;80.55;99496.74;1573484;90;20937;-62
2022/06/13 04:29:21;;;;;;;10.03;2.90;;;;;;;13.92;80.62;99496.73;1575661;90;21505;-63
2022/06/13 04:31:49;;;;;;;7.40;3.08;;;;;;;14.04;80.62;99498.55;1595346;88;21681;-64
2022/06/13 04:34:21;;;;;;;4.83;3.02;;;;;;;14.15;80.69;99495.22;1598630;88;21021;-64
2022/06/13 04:36:49;;;;;;;7.30;2.22;;;;;;;14.24;80.60;99502.48;1622649;83;21396;-64
2022/06/13 04:39:20;;;;;;;6.28;3.08;;;;;;;14.28;80.46;99501.80;1678853;84;21564;-63
2022/06/13 04:41:48;;;;;;;8.70;3.60;;;;;;;14.31;80.47;99502.91;1697305;83;20919;-63
2022/06/13 04:44:19;;;;;;;7.47;2.92;;;;;;;14.37;80.57;99498.59;1695850;83;21125;-64
2022/06/13 04:46:48;;;;;;;7.33;3.35;;;;;;;14.35;80.47;99496.53;1695778;82;20979;-64
2022/06/13 04:49:41;;;;;;;9.38;3.12;;;;;;;14.36;80.58;99498.20;1668553;85;21037;-64
2022/06/13 04:52:13;;;;;;;12.98;4.05;;;;;;;14.44;80.65;99498.53;1687417;83;21422;-63
2022/06/13 04:54:47;;;;;;;9.38;3.62;;;;;;;14.51;80.50;99495.88;1690374;83;20981;-63
2022/06/13 04:57:17;;;;;;;8.60;3.10;;;;;;;14.55;80.17;99489.49;1693983;83;21155;-64
2022/06/13 04:59:45;;;;;;;6.87;3.17;;;;;;;14.40;79.69;99489.19;1667469;85;20966;-63
2022/06/13 05:02:16;;;;;;;6.03;2.98;;;;;;;14.24;79.84;99494.61;1693280;83;21400;-63
2022/06/13 05:04:43;;;;;;;5.60;3.00;;;;;;;14.15;80.06;99492.59;1694461;83;21482;-63
2022/06/13 05:07:21;;;;;;;5.60;3.02;;;;;;;14.17;80.55;99494.66;1692394;83;21702;-63
2022/06/13 05:10:01;;;;;;;5.12;3.00;;;;;;;14.29;80.87;99496.94;1675825;85;21896;-63
2022/06/13 05:12:40;;;;;;;5.90;2.90;;;;;;;14.33;80.53;99506.28;1700323;82;20930;-62
2022/06/13 05:15:18;;;;;;;4.87;2.62;;;;;;;14.31;80.37;99513.41;1672519;83;21008;-64
2022/06/13 05:18:18;;;;;;;7.35;2.85;;;;;;;14.26;80.51;99512.91;1699510;83;20913;-64
2022/06/13 05:20:50;;;;;;;9.48;3.20;;;;;;;14.26;80.52;99518.16;1664275;85;21006;-63
2022/06/13 05:23:50;;;;;;;6.95;2.77;;;;;;;14.09;80.41;99520.09;1670689;85;21769;-64
2022/06/13 05:26:18;;;;;;;8.13;3.70;;;;;;;14.04;80.63;99524.80;1693207;83;20935;-65
2022/06/13 05:28:44;;;;;;;;;;;;;;;14.05;80.86;99523.84;1669530;85;20979;-63
2022/06/13 05:31:19;;;;;;;7.17;3.47;;;;;;;14.15;81.11;99520.64;1681039;82;20469;-63
2022/06/13 05:33:48;;;;;;;6.97;2.90;;;;;;;14.22;80.79;99515.34;1726000;82;20916;-63
2022/06/13 05:36:19;;;;;;;7.80;3.77;;;;;;;14.27;80.63;99519.83;1734642;82;21000;-63
2022/06/13 05:38:53;;;;;;;7.40;3.15;;;;;;;14.33;80.71;99528.13;1732413;82;21394;-63
2022/06/13 05:41:20;;;;;;;7.17;2.72;;;;;;;14.43;80.72;99520.50;1733911;81;20932;-63
2022/06/13 05:43:46;;;;;;;11.10;2.85;;;;;;;14.58;80.85;99523.08;1746734;81;21436;-63
2022/06/13 05:46:33;;;;;;;7.08;2.92;;;;;;;14.74;81.05;99515.85;1747682;81;20912;-62
2022/06/13 05:49:00;;;;;;;9.18;2.58;;;;;;;14.95;81.08;99513.05;1742369;81;21041;-63
2022/06/13 05:51:27;;;;;;;7.35;2.85;;;;;;;15.34;81.00;99520.44;1739274;81;20919;-64
2022/06/13 05:53:57;;;;;;;6.58;3.10;;;;;;;15.55;80.79;99521.22;1737408;80;21492;-64
2022/06/13 05:56:25;;;;;;;9.75;3.35;;;;;;;15.72;80.72;99527.45;1701269;82;20978;-64
2022/06/13 05:58:52;;;;;;;6.33;3.08;;;;;;;15.99;80.83;99531.67;1746614;81;20961;-63
2022/06/13 06:01:19;;;;;;;11.00;3.17;;;;;;;16.19;80.55;99529.76;1737430;81;21473;-63
2022/06/13 06:03:46;;;;;;;5.83;2.87;;;;;;;16.25;80.04;99534.56;1734863;81;20925;-65
2022/06/13 06:06:20;;;;;;;7.22;3.00;;;;;;;16.31;79.98;99535.42;1741014;81;20862;-62
2022/06/13 06:08:49;;;;;;;7.45;2.60;;;;;;;16.46;80.11;99529.97;1745416;81;20934;-65
2022/06/13 06:11:16;;;;;;;8.35;2.60;;;;;;;16.45;79.64;99528.30;1739054;81;21338;-65
2022/06/13 06:13:43;;;;;;;4.22;2.40;;;;;;;16.52;79.94;99526.87;1745485;81;21094;-66
2022/06/13 06:16:16;;;;;;;9.10;2.45;;;;;;;16.49;79.21;99527.09;1741357;81;20907;-66
2022/06/13 06:18:44;;;;;;;6.83;2.40;;;;;;;16.43;79.41;99528.87;1726179;81;20934;-66
2022/06/13 06:21:11;;;;;;;7.10;2.85;;;;;;;16.42;79.48;99528.53;1739778;81;20941;-64
2022/06/13 06:23:38;;;;;;;6.62;2.98;;;;;;;16.37;79.25;99521.44;1737810;81;21540;-66
2022/06/13 06:26:06;;;;;;;5.85;2.20;;;;;;;16.29;78.96;99516.25;1747834;81;21029;-65
2022/06/13 06:28:34;;;;;;;5.90;2.25;;;;;;;16.21;78.75;99523.88;1747638;81;20930;-65
2022/06/13 06:31:03;;;;;;;6.17;2.30;;;;;;;15.95;78.24;99519.21;1739376;81;21466;-65
2022/06/13 06:33:30;;;;;;;4.47;1.80;;;;;;;15.71;78.39;99519.20;1745931;81;20916;-65
2022/06/13 06:35:57;;;;;;;5.60;2.05;;;;;;;15.63;78.48;99522.83;1746254;81;26384;-65
2022/06/13 06:38:26;;;;;;;5.92;2.37;;;;;;;15.45;78.55;99523.64;1749215;81;21832;-65
2022/06/13 06:40:53;;;;;;;5.33;1.95;;;;;;;15.36;78.38;99529.08;1737684;81;20941;-65
2022/06/13 06:43:20;;;;;;;;;;;;;;;15.22;78.32;99519.52;1747394;81;20941;-63
2022/06/13 06:45:48;;;;;;;6.70;2.20;;;;;;;15.12;78.52;99512.38;1736339;81;20143;-64
2022/06/13 06:48:18;;;;;;;5.28;2.22;;;;;;;15.08;78.49;99518.80;1744764;81;20912;-63
2022/06/13 06:50:46;;;;;;;6.12;2.33;;;;;;;14.95;78.12;99515.69;1742177;81;21068;-67
2022/06/13 06:53:13;;;;;;;7.90;3.25;;;;;;;14.90;78.40;99524.83;1742002;81;20887;-65
2022/06/13 07:01:14;;;;;;;8.70;2.62;;;;;;;14.77;78.21;99509.07;1739248;81;20942;-64
2022/06/13 07:03:43;;;;;;;6.20;2.30;;;;;;;14.76;78.40;99511.34;1730733;81;21020;-63
2022/06/13 07:06:11;;;;;;;5.85;2.02;;;;;;;14.75;78.47;99507.02;1741910;81;20922;-63
2022/06/13 07:08:38;;;;;;;8.20;2.42;;;;;;;14.71;77.87;99505.08;1745285;81;21007;-63
2022/06/13 07:13:52;;;;;;;5.87;2.20;;;;;;;14.41;77.85;99508.41;1740715;81;20182;-63
2022/06/13 07:16:19;;;;;;;3.98;2.02;;;;;;;14.42;78.25;99508.30;1741886;81;21847;-64
2022/06/13 07:18:46;;;;;;;3.08;1.62;;;;;;;14.54;78.50;99502.75;1740942;81;20998;-63
2022/06/13 07:21:14;;;;;;;;;;;;;;;14.59;77.95;99497.16;1740693;81;20978;-63
2022/06/13 07:23:41;;;;;;;5.03;2.40;;;;;;;14.56;78.00;99494.27;1750952;81;20639;-63
2022/06/13 07:26:10;;;;;;;5.30;1.92;;;;;;;14.64;78.41;99489.81;1739687;81;20947;-64
2022/06/13 07:28:36;;;;;;;7.03;1.80;;;;;;;14.69;78.24;99473.27;1741201;81;21019;-63
2022/06/13 07:31:03;;;;;;;4.92;1.92;;;;;;;14.71;78.33;99474.02;1740414;81;20959;-63
2022/06/13 07:33:30;;;;;;;6.87;2.72;;;;;;;14.69;78.20;99473.27;1737268;81;20937;-63
2022/06/13 07:35:58;;;;;;;;;;;;;;;14.72;78.12;99473.06;1751163;81;20957;-63
2022/06/13 07:38:25;;;;;;;3.65;1.60;;;;;;;14.70;78.36;99474.50;1744718;81;20134;-63
2022/06/13 07:40:57;;;;;;;6.75;2.02;;;;;;;14.73;78.38;99472.10;1744477;81;21265;-63
2022/06/13 07:43:31;;;;;;;6.45;2.08;;;;;;;14.73;78.30;99472.10;1745216;81;20905;-64
2022/06/13 07:46:02;;;;;;;6.40;2.02;;;;;;;14.76;78.50;99468.81;1747324;81;20967;-63
2022/06/13 07:48:31;;;;;;;3.35;1.62;;;;;;;14.84;78.55;99470.06;1753220;80;20920;-63
2022/06/13 07:50:59;;;;;;;4.28;1.87;;;;;;;14.85;78.43;99466.02;1744407;81;20983;-63
2022/06/13 07:53:28;;;;;;;5.08;1.98;;;;;;;14.90;78.48;99457.35;1735821;81;21185;-63
2022/06/13 07:55:57;;;;;;;5.28;2.50;;;;;;;15.01;78.78;99455.27;1733892;81;21499;-63
2022/06/13 07:58:37;;;;;;;4.15;2.00;;;;;;;15.28;79.01;99461.70;1732177;81;20864;-63
2022/06/13 08:01:06;;;;;;;2.98;1.95;;;;;;;15.70;79.51;99463.55;1744739;81;20926;-63
2022/06/13 08:03:36;;;;;;;5.85;2.70;;;;;;;16.15;79.14;99471.66;1740226;80;20946;-64
2022/06/13 08:06:04;;;;;;;3.55;2.00;;;;;;;16.54;79.05;99474.89;1736534;81;21166;-64
2022/06/13 08:08:36;;;;;;;7.47;2.17;;;;;;;16.91;79.01;99474.73;1718191;81;20975;-63
2022/06/13 08:11:13;;;;;;;7.97;1.82;;;;;;;17.37;78.99;99471.14;1744306;81;20955;-64
2022/06/13 08:13:42;;;;;;;4.60;1.98;;;;;;;17.75;78.77;99467.21;1738099;81;21466;-63
2022/06/13 08:16:11;;;;;;;5.15;2.47;;;;;;;18.33;78.87;99461.97;1752515;80;20995;-64
2022/06/13 08:18:42;;;;;;;7.08;2.33;;;;;;;18.89;78.75;99466.09;1737644;81;21736;-63
2022/06/13 08:21:11;;;;;;;6.37;2.55;;;;;;;19.59;79.61;99466.20;1750830;80;20959;-64
2022/06/13 08:23:38;;;;;;;7.70;2.35;;;;;;;20.31;77.83;99456.58;1741677;80;22160;-64
2022/06/13 08:26:05;;;;;;;9.80;2.55;;;;;;;20.72;78.31;99443.95;1751351;81;20922;-64
2022/06/13 08:28:32;;;;;;;7.50;2.50;;;;;;;20.98;77.53;99453.94;1736781;81;21560;-64
2022/06/13 08:31:03;;;;;;;6.60;2.55;;;;;;;21.21;77.53;99452.57;1732278;81;21218;-64
2022/06/13 08:33:30;;;;;;;9.00;2.60;;;;;;;21.33;76.39;99449.72;1739438;80;21051;-64
2022/06/13 08:35:58;;;;;;;6.47;2.40;;;;;;;21.55;75.96;99449.34;1759487;81;20939;-64
2022/06/13 08:38:25;;;;;;;5.15;2.30;;;;;;;21.54;75.18;99451.66;1737716;81;21963;-65
2022/06/13 08:40:57;;;;;;;;;;;;;;;21.49;75.28;99463.22;1744210;81;20908;-64
2022/06/13 08:43:38;;;;;;;3.67;2.10;;;;;;;21.31;74.38;99449.85;1745374;80;21057;-64
2022/06/13 08:46:30;;;;;;;6.10;2.17;;;;;;;21.26;74.60;99459.24;1744569;81;20952;-63
2022/06/13 08:49:08;;;;;;;4.67;1.87;;;;;;;20.73;72.64;99460.23;1743376;81;20914;-64
2022/06/13 08:51:39;;;;;;;7.62;2.05;;;;;;;20.02;72.20;99457.06;1749101;81;20949;-64
2022/06/13 08:54:10;;;;;;;6.67;2.30;;;;;;;19.98;73.43;99449.06;1751525;81;21536;-63
2022/06/13 08:56:37;;;;;;;5.78;1.75;;;;;;;20.14;72.57;99446.69;1744199;81;22642;-63
2022/06/13 08:59:24;;;;;;;6.50;2.60;;;;;;;20.28;71.04;99448.91;1749269;81;20898;-63
2022/06/13 09:02:15;;;;;;;7.22;2.42;;;;;;;20.30;72.18;99441.62;1749518;80;21000;-62
2022/06/13 09:05:03;;;;;;;5.72;2.25;;;;;;;20.79;73.24;99437.09;1756371;80;20975;-63
2022/06/13 09:07:50;;;;;;;6.35;2.27;;;;;;;21.46;73.40;99431.65;1748923;81;20965;-63
2022/06/13 09:10:35;;;;;;;9.05;2.33;;;;;;;21.74;67.71;99436.92;1737085;79;20996;-63
2022/06/13 09:13:24;;;;;;;6.37;1.98;;;;;;;20.87;68.83;99435.55;1728034;82;21510;-63
2022/06/13 09:16:11;;;;;;;7.65;2.05;;;;;;;20.15;69.06;99443.05;1734292;82;21475;-63
2022/06/13 09:19:02;;;;;;;7.45;2.67;;;;;;;20.14;70.31;99437.41;1720147;82;20965;-63
2022/06/13 09:21:47;;;;;;;8.95;2.27;;;;;;;20.22;70.43;99425.62;1717067;82;21558;-63
2022/06/13 09:24:23;;;;;;;6.37;2.02;;;;;;;20.29;69.51;99428.03;1725281;82;21560;-62
2022/06/13 09:26:58;;;;;;;5.40;1.85;;;;;;;20.53;69.33;99424.13;1723322;82;20961;-63
2022/06/13 09:29:33;;;;;;;7.97;1.95;;;;;;;20.63;69.19;99422.77;1721523;82;20961;-63
2022/06/13 09:32:17;;;;;;;6.92;2.45;;;;;;;20.99;69.17;99418.45;1722850;82;20944;-62
2022/06/13 09:34:57;;;;;;;6.05;2.22;;;;;;;20.95;65.32;99420.56;1700640;82;20949;-63
2022/06/13 09:37:53;;;;;;;7.83;2.30;;;;;;;20.98;68.11;99412.80;1722911;82;21059;-63
2022/06/13 09:40:34;;;;;;;3.80;1.65;;;;;;;21.43;68.70;99408.88;1719622;82;20913;-63
2022/06/13 09:43:06;;;;;;;9.60;1.95;;;;;;;22.00;68.15;99397.95;1721317;82;21420;-64
2022/06/13 09:45:44;;;;;;;4.37;2.00;;;;;;;22.28;66.86;99400.52;1724588;81;20993;-63
2022/06/13 09:48:30;;;;;;;7.30;2.10;;;;;;;22.04;65.97;99395.34;1728052;82;20890;-63
2022/06/13 09:51:21;;;;;;;5.35;2.08;;;;;;;21.62;61.80;99391.98;1753734;80;21068;-62
2022/06/13 09:53:53;;;;;;;5.20;2.30;;;;;;;21.00;63.41;99390.45;1756922;80;21000;-63
2022/06/13 09:56:34;;;;;;;4.35;1.70;;;;;;;20.67;64.46;99397.14;1755881;80;21336;-63
2022/06/13 09:59:24;;;;;;;5.80;2.02;;;;;;;20.27;63.88;99410.10;1747855;80;20894;-62
2022/06/13 10:02:17;;;;;;;3.37;1.65;;;;;;;19.44;62.73;99416.77;1755191;80;20926;-62
2022/06/13 10:05:11;;;;;;;2.85;1.12;;;;;;;18.29;63.41;99437.27;1761222;80;21491;-62
2022/06/13 10:07:56;;;;;;;5.15;1.27;;;;;;;17.07;63.96;99450.16;1753492;80;21610;-62
2022/06/13 10:10:43;;;;;;;10.18;1.27;;;;;;;16.27;65.41;99462.86;1761362;79;20956;-62
2022/06/13 10:13:36;;;;;;;3.87;1.22;;;;;;;15.29;67.45;99454.19;1755425;80;20968;-63
2022/06/13 10:16:23;;;;;;;4.67;1.47;;;;;;;14.34;66.27;99464.66;1747930;80;21452;-62
2022/06/13 10:19:10;;;;;;;3.72;1.35;;;;;;;13.74;67.31;99461.16;1756075;79;21729;-62
2022/06/13 10:21:51;;;;;;;11.60;2.50;;;;;;;13.33;69.53;99448.89;1752159;80;20913;-63
2022/06/13 10:24:32;;;;;;;3.47;1.50;;;;;;;13.00;68.49;99448.73;1757235;79;20866;-62
2022/06/13 10:27:35;;;;;;;6.58;1.60;;;;;;;12.90;68.62;99449.74;1755792;80;20937;-62
2022/06/13 10:30:31;;;;;;;5.20;1.75;;;;;;;12.86;69.14;99444.80;1750964;79;21554;-63
2022/06/13 10:33:09;;;;;;;4.22;1.70;;;;;;;12.85;69.36;99449.66;1757022;80;21109;-62
2022/06/13 10:36:02;;;;;;;4.75;2.22;;;;;;;13.04;69.82;99461.16;1755666;80;21034;-62
2022/06/13 10:39:03;;;;;;;4.22;1.95;;;;;;;13.16;69.81;99458.64;1752379;80;20939;-62
2022/06/13 10:41:30;;;;;;;3.70;1.65;;;;;;;13.27;70.06;99458.45;1750844;80;21519;-62
2022/06/13 10:43:59;;;;;;;3.05;1.50;;;;;;;13.43;70.45;99461.80;1752974;80;20942;-62
2022/06/13 10:46:25;;;;;;;5.17;1.70;;;;;;;13.46;70.47;99458.98;1729983;80;21917;-62
2022/06/13 10:49:12;;;;;;;6.10;2.55;;;;;;;13.40;70.50;99463.31;1758476;80;20877;-62
2022/06/13 10:51:42;;;;;;;4.17;2.22;;;;;;;13.35;70.98;99462.75;1758151;80;20945;-61
2022/06/13 10:54:13;;;;;;;6.08;2.05;;;;;;;13.38;71.48;99454.22;1757383;80;21005;-61
2022/06/13 10:57:06;;;;;;;5.70;2.83;;;;;;;13.48;71.96;99450.56;1749374;80;20948;-61
2022/06/13 10:59:36;;;;;;;5.55;2.00;;;;;;;13.60;72.17;99452.38;1759140;80;20943;-62
2022/06/13 11:02:24;;;;;;;6.30;2.52;;;;;;;13.70;72.30;99450.50;1751221;80;20964;-62
2022/06/13 11:05:11;;;;;;;7.30;2.92;;;;;;;13.77;72.57;99453.09;1751238;80;20901;-62
2022/06/13 11:07:49;;;;;;;;;;;;;;;13.89;72.93;99454.91;1752142;80;20934;-62
2022/06/13 11:10:33;;;;;;;8.45;2.60;;;;;;;13.95;73.13;99450.59;1746603;80;20455;-62
2022/06/13 11:13:06;;;;;;;6.83;2.55;;;;;;;14.16;73.23;99444.86;1758841;80;21062;-62
2022/06/13 11:24:47;;;;;;;6.25;2.58;;;;;;;14.87;73.77;99450.13;1756237;80;20954;-62
2022/06/13 11:27:42;;;;;;;6.60;2.77;;;;;;;14.97;73.70;99446.77;1753949;80;21847;-62
2022/06/13 11:30:29;;;;;;;7.03;2.33;;;;;;;15.05;73.75;99451.48;1754019;80;20933;-62
2022/06/13 11:33:04;;;;;;;;;;;;;;;15.15;73.85;99438.52;1755714;80;20863;-62
2022/06/13 11:35:39;;;;;;;7.72;2.47;;;;;;;15.37;74.59;99436.05;1755271;80;20075;-62
2022/06/13 11:38:19;;;;;;;6.92;2.45;;;;;;;15.69;74.57;99439.99;1698525;83;21497;-63
2022/06/13 11:41:03;;;;;;;10.98;3.10;;;;;;;15.85;74.32;99444.02;1690819;83;21054;-63
2022/06/13 11:43:50;;;;;;;9.13;2.85;;;;;;;15.97;74.00;99446.70;1677277;83;20965;-62
2022/06/13 11:46:55;;;;;;;7.37;3.05;;;;;;;15.79;74.05;99449.70;1686405;84;20939;-62
2022/06/13 11:49:36;;;;;;;7.70;3.02;;;;;;;15.82;74.50;99454.78;1684358;84;21484;-62
2022/06/13 11:53:35;;;;;;;5.50;2.30;;;;;;;15.66;74.21;99451.06;1693948;84;20993;-62
2022/06/13 11:54:57;;;;;;;5.40;2.47;;;;;;;15.57;74.25;99439.03;1748615;81;21071;-63
2022/06/13 11:57:33;;;;;;;6.12;2.55;;;;;;;15.56;74.77;99442.63;1743449;81;21054;-63
2022/06/13 12:00:05;;;;;;;7.95;2.83;;;;;;;15.83;75.35;99440.66;1749258;79;20953;-63
2022/06/13 12:02:40;;;;;;;5.45;2.67;;;;;;;15.98;74.94;99440.47;1747434;81;21414;-63
2022/06/13 12:05:21;;;;;;;4.65;2.40;;;;;;;16.16;75.25;99444.38;1749477;81;20911;-63
2022/06/13 12:07:53;;;;;;;6.47;2.58;;;;;;;16.37;75.79;99427.91;1736402;80;20992;-63
2022/06/13 12:10:25;;;;;;;5.08;2.35;;;;;;;16.77;76.14;99418.62;1749024;81;20934;-63
2022/06/13 12:12:52;;;;;;;5.50;2.85;;;;;;;17.00;75.38;99416.02;1724160;81;20866;-64
2022/06/13 12:15:25;;;;;;;7.80;3.08;;;;;;;16.88;74.86;99428.83;1746763;81;20926;-62
2022/06/13 12:18:00;;;;;;;9.78;2.72;;;;;;;16.55;74.39;99429.98;1745022;81;21060;-64
2022/06/13 12:20:42;;;;;;;10.35;3.15;;;;;;;16.13;74.84;99434.05;1752960;81;21816;-64
2022/06/13 12:23:12;;;;;;;7.08;2.77;;;;;;;15.89;75.53;99434.92;1741726;79;20957;-64
2022/06/13 12:26:08;;;;;;;6.28;2.50;;;;;;;15.80;75.36;99427.72;1743018;79;20918;-64
2022/06/13 12:29:18;;;;;;;7.83;2.55;;;;;;;15.71;75.58;99423.14;1642347;86;21617;-63
2022/06/13 12:31:52;;;;;;;4.33;1.80;;;;;;;15.76;75.50;99426.24;1606988;88;21535;-64
2022/06/13 12:34:29;;;;;;;6.08;2.20;;;;;;;15.65;74.86;99424.36;1598990;88;21491;-63
2022/06/13 12:37:09;;;;;;;7.15;2.87;;;;;;;15.77;75.59;99421.36;1595392;88;20994;-65
2022/06/13 12:40:18;;;;;;;6.85;2.02;;;;;;;15.93;75.69;99418.91;1559112;91;21001;-64
2022/06/13 12:43:10;;;;;;;8.88;2.70;;;;;;;16.20;75.59;99421.28;1549525;90;21009;-64